createdAt,value
2022-12-28T00:01:25.254Z,12.70
2022-12-28T00:03:52.710Z,14.50
2022-12-28T00:06:21.428Z,12.87
2022-12-28T00:08:48.291Z,12.83
2022-12-28T00:11:26.512Z,12.40
2022-12-28T00:13:58.579Z,12.87
2022-12-28T00:16:28.496Z,12.20
2022-12-28T00:18:56.266Z,12.52
2022-12-28T00:21:23.137Z,12.60
2022-12-28T00:23:51.198Z,13.60
2022-12-28T00:26:19.519Z,12.90
2022-12-28T00:28:46.519Z,12.10
2022-12-28T00:31:13.962Z,13.83
2022-12-28T00:33:40.406Z,12.83
2022-12-28T00:36:07.893Z,11.70
2022-12-28T00:38:36.034Z,11.67
2022-12-28T00:41:02.693Z,11.33
2022-12-28T00:43:29.034Z,13.03
2022-12-28T00:45:55.447Z,10.87
2022-12-28T00:48:22.499Z,11.20
2022-12-28T00:50:49.296Z,10.50
2022-12-28T00:53:15.855Z,11.53
2022-12-28T00:55:42.909Z,12.20
2022-12-28T00:58:09.443Z,11.77
2022-12-28T01:00:37.369Z,11.90
2022-12-28T01:03:03.911Z,12.07
2022-12-28T01:05:30.431Z,10.33
2022-12-28T01:07:56.911Z,11.17
2022-12-28T01:10:23.235Z,12.13
2022-12-28T01:12:49.620Z,11.00
2022-12-28T01:15:16.138Z,10.80
2022-12-28T01:17:42.639Z,11.57
2022-12-28T01:20:09.370Z,13.30
2022-12-28T01:22:35.934Z,12.53
2022-12-28T01:25:02.650Z,12.53
2022-12-28T01:27:29.219Z,11.53
2022-12-28T01:29:55.693Z,12.90
2022-12-28T01:32:22.062Z,12.37
2022-12-28T01:34:48.432Z,11.73
2022-12-28T01:37:15.005Z,13.13
2022-12-28T01:39:41.412Z,13.53
2022-12-28T01:42:15.784Z,11.97
2022-12-28T01:44:47.694Z,12.50
2022-12-28T01:47:40.489Z,13.67
2022-12-28T01:50:14.252Z,12.10
2022-12-28T01:52:57.628Z,12.53
2022-12-28T01:55:34.848Z,11.97
2022-12-28T01:58:05.161Z,11.80
2022-12-28T02:00:32.082Z,12.85
2022-12-28T02:03:04.789Z,11.27
2022-12-28T02:05:37.960Z,11.93
2022-12-28T02:08:20.352Z,12.60
2022-12-28T02:10:47.571Z,11.40
2022-12-28T02:13:19.477Z,10.73
2022-12-28T02:15:46.988Z,11.47
2022-12-28T02:18:15.660Z,11.13
2022-12-28T02:21:10.068Z,13.07
2022-12-28T02:24:18.054Z,11.57
2022-12-28T02:26:54.121Z,12.53
2022-12-28T02:29:40.048Z,11.33
2022-12-28T02:32:13.530Z,12.57
2022-12-28T02:34:54.817Z,11.00
2022-12-28T02:37:26.551Z,11.00
2022-12-28T02:39:58.739Z,11.87
2022-12-28T02:42:27.089Z,11.33
2022-12-28T02:44:53.446Z,12.07
2022-12-28T02:47:19.866Z,10.47
2022-12-28T02:49:46.434Z,10.07
2022-12-28T02:52:31.092Z,10.43
2022-12-28T02:55:16.274Z,11.50
2022-12-28T02:58:16.575Z,9.97
2022-12-28T03:00:49.489Z,10.68
2022-12-28T03:03:44.845Z,10.77
2022-12-28T03:06:30.050Z,10.63
2022-12-28T03:09:07.444Z,11.33
2022-12-28T03:11:41.106Z,11.67
2022-12-28T03:14:18.776Z,10.37
2022-12-28T03:16:48.805Z,11.20
2022-12-28T03:19:15.467Z,11.18
2022-12-28T03:21:43.187Z,11.10
2022-12-28T03:24:12.113Z,12.20
2022-12-28T03:26:44.270Z,11.37
2022-12-28T03:29:16.395Z,10.27
2022-12-28T03:31:42.981Z,10.23
2022-12-28T03:34:09.621Z,10.57
2022-12-28T03:36:52.937Z,10.47
2022-12-28T03:39:41.087Z,11.30
2022-12-28T03:42:44.483Z,10.67
2022-12-28T03:45:46.457Z,11.23
2022-12-28T03:48:10.061Z,13.20
2022-12-28T03:50:40.352Z,11.40
2022-12-28T03:53:08.356Z,10.85
2022-12-28T03:55:35.265Z,10.73
2022-12-28T03:58:01.655Z,11.50
2022-12-28T04:00:28.001Z,12.00
2022-12-28T04:02:54.466Z,10.47
2022-12-28T04:05:21.036Z,12.03
2022-12-28T04:07:47.621Z,11.43
2022-12-28T04:10:14.180Z,11.57
2022-12-28T04:12:40.540Z,12.40
2022-12-28T04:15:07.644Z,11.90
2022-12-28T04:17:33.988Z,11.20
2022-12-28T04:20:00.422Z,11.37
2022-12-28T04:22:26.872Z,12.90
2022-12-28T04:24:53.440Z,11.80
2022-12-28T04:27:19.828Z,12.23
2022-12-28T04:29:46.205Z,11.93
2022-12-28T04:32:12.541Z,11.63
2022-12-28T04:34:43.120Z,12.20
2022-12-28T04:37:12.981Z,11.67
2022-12-28T04:39:54.841Z,11.93
2022-12-28T04:42:23.399Z,15.43
2022-12-28T04:44:49.962Z,13.73
2022-12-28T04:47:16.422Z,14.90
2022-12-28T04:49:42.833Z,14.60
2022-12-28T04:52:09.254Z,12.73
2022-12-28T04:54:35.544Z,12.00
2022-12-28T04:57:01.973Z,11.87
2022-12-28T04:59:28.343Z,10.93
2022-12-28T05:01:54.895Z,13.87
2022-12-28T05:04:21.478Z,11.87
2022-12-28T05:06:47.901Z,11.10
2022-12-28T05:09:14.226Z,11.43
2022-12-28T05:11:40.712Z,12.27
2022-12-28T05:14:07.040Z,11.70
2022-12-28T05:16:33.685Z,11.67
2022-12-28T05:19:00.281Z,12.60
2022-12-28T05:21:28.366Z,12.33
2022-12-28T05:23:56.024Z,12.87
2022-12-28T05:26:25.656Z,12.87
2022-12-28T05:28:52.529Z,11.57
2022-12-28T05:31:21.431Z,11.83
2022-12-28T05:33:47.887Z,11.50
2022-12-28T05:36:26.397Z,11.70
2022-12-28T05:38:53.544Z,11.47
2022-12-28T05:41:25.376Z,11.73
2022-12-28T05:43:52.337Z,11.97
2022-12-28T05:46:21.928Z,13.13
2022-12-28T05:48:48.687Z,13.03
2022-12-28T05:51:20.116Z,12.60
2022-12-28T05:53:47.822Z,12.70
2022-12-28T05:56:17.174Z,12.73
2022-12-28T05:58:45.115Z,12.97
2022-12-28T06:01:15.520Z,12.67
2022-12-28T06:03:42.689Z,11.75
2022-12-28T06:06:14.590Z,19.33
2022-12-28T06:08:42.175Z,16.93
2022-12-28T06:11:11.412Z,15.57
2022-12-28T06:13:38.731Z,14.93
2022-12-28T06:16:14.050Z,15.13
2022-12-28T06:18:41.079Z,14.27
2022-12-28T06:21:24.235Z,13.90
2022-12-28T06:23:51.649Z,13.97
2022-12-28T06:26:20.786Z,12.13
2022-12-28T06:28:48.268Z,12.67
2022-12-28T06:31:20.300Z,11.53
2022-12-28T06:33:47.974Z,12.90
2022-12-28T06:36:21.008Z,12.30
2022-12-28T06:38:48.946Z,11.73
2022-12-28T06:41:17.415Z,11.73
2022-12-28T06:43:45.325Z,12.37
2022-12-28T06:46:13.550Z,12.57
2022-12-28T06:48:40.293Z,12.60
2022-12-28T06:51:15.603Z,11.90
2022-12-28T06:53:42.555Z,12.00
2022-12-28T06:56:15.054Z,12.03
2022-12-28T06:58:42.412Z,11.87
2022-12-28T07:01:18.035Z,13.70
2022-12-28T07:03:46.140Z,12.83
2022-12-28T07:06:14.071Z,14.50
2022-12-28T07:08:40.473Z,14.10
2022-12-28T07:11:14.081Z,13.17
2022-12-28T07:13:41.029Z,13.50
2022-12-28T07:16:13.874Z,14.30
2022-12-28T07:18:41.288Z,14.23
2022-12-28T07:21:11.698Z,15.40
2022-12-28T07:23:38.314Z,14.38
2022-12-28T07:26:09.194Z,14.80
2022-12-28T07:31:07.118Z,14.93
2022-12-28T07:33:35.439Z,15.47
2022-12-28T07:36:02.555Z,15.53
2022-12-28T07:38:29.101Z,14.50
2022-12-28T07:41:03.815Z,15.93
2022-12-28T07:43:30.789Z,15.87
2022-12-28T07:46:02.673Z,15.83
2022-12-28T07:48:33.366Z,17.40
2022-12-28T07:51:17.575Z,15.43
2022-12-28T07:53:46.135Z,16.03
2022-12-28T07:56:14.140Z,13.73
2022-12-28T08:01:13.958Z,14.43
2022-12-28T08:03:41.647Z,13.97
2022-12-28T08:06:10.834Z,13.00
2022-12-28T08:08:42.997Z,13.17
2022-12-28T08:11:12.336Z,11.87
2022-12-28T08:13:40.865Z,10.90
2022-12-28T08:16:08.300Z,10.60
2022-12-28T08:18:34.802Z,10.40
2022-12-28T08:21:03.852Z,10.33
2022-12-28T08:23:31.738Z,13.20
2022-12-28T08:26:12.599Z,11.70
2022-12-28T08:28:40.305Z,12.02
2022-12-28T08:31:13.083Z,12.03
2022-12-28T08:33:39.821Z,12.53
2022-12-28T08:36:07.540Z,11.27
2022-12-28T08:38:34.103Z,12.73
2022-12-28T08:41:02.553Z,12.73
2022-12-28T08:43:29.965Z,12.57
2022-12-28T08:46:00.879Z,12.57
2022-12-28T08:50:54.664Z,11.83
2022-12-28T08:53:22.496Z,12.20
2022-12-28T08:55:48.876Z,11.27
2022-12-28T08:58:15.312Z,12.70
2022-12-28T09:00:41.709Z,11.97
2022-12-28T09:03:08.300Z,11.83
2022-12-28T09:05:39.774Z,12.77
2022-12-28T09:08:06.545Z,12.20
2022-12-28T09:10:33.135Z,11.90
2022-12-28T09:12:59.735Z,12.37
2022-12-28T09:15:26.194Z,12.70
2022-12-28T09:17:52.854Z,13.10
2022-12-28T09:20:19.200Z,12.50
2022-12-28T09:22:45.725Z,13.77
2022-12-28T09:25:12.190Z,12.40
2022-12-28T09:27:38.762Z,14.00
2022-12-28T09:30:05.775Z,14.10
2022-12-28T09:32:32.600Z,11.95
2022-12-28T09:34:59.428Z,12.88
2022-12-28T09:37:26.221Z,11.93
2022-12-28T09:39:55.581Z,13.23
2022-12-28T09:42:29.178Z,12.93
2022-12-28T09:45:11.686Z,11.90
2022-12-28T09:47:47.245Z,11.85
2022-12-28T09:50:26.713Z,11.65
2022-12-28T09:53:15.194Z,11.82
2022-12-28T09:55:48.832Z,13.48
2022-12-28T09:58:16.910Z,12.63
2022-12-28T10:00:48.888Z,12.90
2022-12-28T10:03:35.612Z,11.82
2022-12-28T10:06:03.188Z,11.25
2022-12-28T10:08:29.953Z,11.85
2022-12-28T10:11:01.794Z,10.70
2022-12-28T10:13:54.015Z,10.73
2022-12-28T10:16:23.388Z,10.25
2022-12-28T10:18:50.381Z,10.23
2022-12-28T10:21:25.374Z,9.40
2022-12-28T10:24:29.693Z,9.80
2022-12-28T10:26:46.989Z,9.23
2022-12-28T10:29:20.140Z,9.63
2022-12-28T10:31:59.481Z,9.95
2022-12-28T10:34:26.190Z,9.00
2022-12-28T10:36:54.920Z,8.32
2022-12-28T10:39:30.171Z,9.20
2022-12-28T10:41:59.705Z,9.52
2022-12-28T10:44:42.058Z,9.57
2022-12-28T10:47:32.824Z,8.95
2022-12-28T10:52:56.330Z,9.15
2022-12-28T10:55:31.512Z,10.05
2022-12-28T10:58:30.289Z,10.20
2022-12-28T11:01:00.473Z,9.90
2022-12-28T11:03:30.510Z,8.73
2022-12-28T11:06:15.477Z,6.60
2022-12-28T11:08:43.660Z,5.20
2022-12-28T11:11:22.432Z,5.00
2022-12-28T11:13:57.840Z,4.53
2022-12-28T11:16:24.553Z,5.07
2022-12-28T11:18:51.440Z,5.25
2022-12-28T11:21:21.457Z,4.50
2022-12-28T11:23:50.450Z,4.30
2022-12-28T11:26:17.514Z,3.88
2022-12-28T11:28:45.833Z,4.00
2022-12-28T11:31:21.898Z,3.95
2022-12-28T11:34:01.183Z,5.10
2022-12-28T11:36:28.681Z,4.13
2022-12-28T11:38:56.585Z,4.35
2022-12-28T11:41:33.269Z,3.55
2022-12-28T11:44:02.115Z,3.65
2022-12-28T11:46:39.101Z,2.92
2022-12-28T11:49:26.411Z,3.50
2022-12-28T11:52:15.007Z,3.13
2022-12-28T11:55:21.474Z,3.10
2022-12-28T11:57:48.265Z,3.25
2022-12-28T12:00:22.186Z,3.30
2022-12-28T12:02:50.727Z,2.47
2022-12-28T12:05:50.746Z,2.50
2022-12-28T12:08:17.248Z,3.13
2022-12-28T12:10:48.720Z,2.63
2022-12-28T12:13:47.784Z,3.40
2022-12-28T12:16:26.702Z,2.55
2022-12-28T12:18:57.537Z,2.38
2022-12-28T12:23:58.784Z,1.80
2022-12-28T12:26:27.961Z,2.42
2022-12-28T12:29:00.734Z,2.78
2022-12-28T12:31:43.559Z,2.65
2022-12-28T12:34:28.511Z,2.28
2022-12-28T12:37:16.555Z,1.92
2022-12-28T12:39:55.219Z,1.83
2022-12-28T12:42:49.032Z,2.08
2022-12-28T12:45:38.407Z,1.95
2022-12-28T12:48:15.007Z,1.45
2022-12-28T12:50:56.886Z,1.67
2022-12-28T12:53:48.031Z,1.75
2022-12-28T12:56:24.199Z,1.50
2022-12-28T12:59:28.047Z,1.55
2022-12-28T13:02:08.651Z,2.15
2022-12-28T13:04:36.000Z,1.95
2022-12-28T13:07:05.385Z,1.88
2022-12-28T13:09:34.721Z,1.52
2022-12-28T13:12:02.450Z,2.20
2022-12-28T13:14:29.934Z,1.50
2022-12-28T13:16:59.078Z,1.63
2022-12-28T13:19:27.746Z,1.60
2022-12-28T13:21:54.964Z,1.67
2022-12-28T13:24:31.430Z,1.13
2022-12-28T13:26:59.784Z,1.85
2022-12-28T13:29:39.533Z,1.50
2022-12-28T13:32:06.057Z,1.50
2022-12-28T13:34:33.954Z,1.73
2022-12-28T13:37:02.461Z,1.50
2022-12-28T13:39:34.212Z,1.38
2022-12-28T13:42:16.033Z,1.50
2022-12-28T13:44:57.469Z,1.48
2022-12-28T13:47:30.945Z,1.92
2022-12-28T13:50:00.008Z,1.58
2022-12-28T13:52:32.737Z,1.75
2022-12-28T13:55:05.456Z,1.80
2022-12-28T13:57:55.711Z,1.92
2022-12-28T14:00:22.856Z,1.90
2022-12-28T14:02:51.804Z,2.35
2022-12-28T14:05:21.894Z,2.25
2022-12-28T14:07:50.652Z,7.68
2022-12-28T14:10:18.437Z,3.20
2022-12-28T14:12:46.083Z,2.92
2022-12-28T14:15:13.720Z,3.50
2022-12-28T14:17:40.836Z,3.65
2022-12-28T14:20:08.164Z,3.15
2022-12-28T14:22:37.519Z,3.47
2022-12-28T14:25:06.728Z,3.60
2022-12-28T14:27:38.116Z,4.05
2022-12-28T14:30:06.858Z,3.30
2022-12-28T14:35:25.122Z,3.92
2022-12-28T14:37:57.872Z,3.83
2022-12-28T14:40:28.727Z,3.85
2022-12-28T14:45:36.005Z,6.65
2022-12-28T14:48:38.699Z,8.52
2022-12-28T14:51:17.311Z,10.07
2022-12-28T14:53:45.101Z,10.35
2022-12-28T14:59:03.316Z,7.78
2022-12-28T15:01:41.483Z,6.00
2022-12-28T15:04:07.998Z,10.85
2022-12-28T15:06:34.936Z,6.50
2022-12-28T15:09:01.426Z,7.35
2022-12-28T15:11:29.316Z,6.75
2022-12-28T15:13:57.827Z,6.30
2022-12-28T15:16:24.518Z,4.70
2022-12-28T15:18:51.712Z,4.03
2022-12-28T15:21:21.107Z,4.15
2022-12-28T15:23:52.593Z,5.22
2022-12-28T15:26:20.048Z,7.50
2022-12-28T15:29:06.498Z,7.15
2022-12-28T15:31:33.009Z,7.70
2022-12-28T15:33:59.391Z,9.38
2022-12-28T15:36:25.853Z,10.77
2022-12-28T15:38:55.193Z,10.55
2022-12-28T15:41:22.151Z,10.05
2022-12-28T15:43:49.115Z,9.75
2022-12-28T15:46:15.556Z,8.55
2022-12-28T15:48:47.565Z,9.88
2022-12-28T15:51:14.409Z,8.23
2022-12-28T15:53:40.947Z,8.15
2022-12-28T15:56:07.700Z,8.93
2022-12-28T15:58:34.155Z,11.30
2022-12-28T16:01:00.599Z,12.45
2022-12-28T16:03:27.012Z,13.07
2022-12-28T16:05:59.011Z,12.60
2022-12-28T16:08:25.403Z,10.13
2022-12-28T16:10:51.946Z,13.10
2022-12-28T16:13:18.445Z,12.07
2022-12-28T16:15:44.874Z,10.40
2022-12-28T16:18:11.311Z,12.60
2022-12-28T16:20:37.726Z,9.73
2022-12-28T16:23:04.118Z,10.20
2022-12-28T16:25:30.440Z,10.60
2022-12-28T16:27:56.898Z,11.25
2022-12-28T16:30:23.928Z,10.05
2022-12-28T16:32:50.297Z,10.23
2022-12-28T16:35:16.764Z,12.00
2022-12-28T16:37:43.440Z,11.55
2022-12-28T16:40:10.659Z,10.93
2022-12-28T16:42:37.157Z,17.55
2022-12-28T16:45:03.798Z,15.85
2022-12-28T16:47:30.473Z,15.93
2022-12-28T16:49:57.030Z,17.70
2022-12-28T16:52:23.387Z,25.00
2022-12-28T16:54:49.772Z,19.70
2022-12-28T16:57:16.367Z,18.70
2022-12-28T16:59:42.932Z,13.98
2022-12-28T17:02:12.540Z,11.48
2022-12-28T17:04:39.137Z,11.90
2022-12-28T17:07:05.671Z,11.93
2022-12-28T17:09:32.122Z,13.10
2022-12-28T17:11:58.579Z,10.23
2022-12-28T17:14:36.878Z,9.30
2022-12-28T17:17:05.739Z,9.07
2022-12-28T17:19:32.273Z,9.57
2022-12-28T17:21:58.735Z,9.73
2022-12-28T17:24:25.368Z,11.10
2022-12-28T17:26:51.802Z,10.82
2022-12-28T17:29:18.332Z,9.75
2022-12-28T17:31:44.771Z,9.05
2022-12-28T17:34:11.376Z,9.02
2022-12-28T17:36:38.008Z,9.95
2022-12-28T17:39:04.780Z,8.90
2022-12-28T17:41:31.722Z,7.78
2022-12-28T17:44:00.251Z,7.95
2022-12-28T17:46:29.670Z,8.63
2022-12-28T17:48:57.892Z,9.75
2022-12-28T17:51:24.945Z,8.60
2022-12-28T17:53:53.775Z,8.90
2022-12-28T17:56:20.313Z,9.27
2022-12-28T17:58:47.050Z,8.30
2022-12-28T18:01:13.924Z,8.80
2022-12-28T18:03:40.574Z,8.23
2022-12-28T18:06:07.473Z,8.38
2022-12-28T18:08:33.940Z,8.60
2022-12-28T18:11:00.602Z,9.07
2022-12-28T18:13:26.978Z,9.00
2022-12-28T18:15:53.449Z,10.38
2022-12-28T18:18:19.807Z,9.20
2022-12-28T18:21:02.244Z,9.35
2022-12-28T18:23:29.916Z,9.52
2022-12-28T18:26:04.286Z,9.32
2022-12-28T18:28:32.141Z,10.23
2022-12-28T18:31:02.049Z,8.05
2022-12-28T18:33:29.636Z,7.72
2022-12-28T18:35:55.932Z,9.50
2022-12-28T18:38:22.755Z,9.20
2022-12-28T18:40:53.704Z,7.97
2022-12-28T18:45:53.287Z,9.00
2022-12-28T18:48:19.850Z,8.07
2022-12-28T18:51:00.105Z,8.07
2022-12-28T18:53:28.642Z,10.40
2022-12-28T18:56:03.414Z,11.98
2022-12-28T18:58:32.133Z,10.77
2022-12-28T19:01:05.868Z,10.80
2022-12-28T19:03:32.503Z,10.85
2022-12-28T19:06:03.225Z,10.02
2022-12-28T19:08:34.287Z,9.23
2022-12-28T19:13:32.408Z,9.55
2022-12-28T19:15:58.788Z,9.32
2022-12-28T19:18:25.373Z,9.82
2022-12-28T19:20:59.008Z,8.73
2022-12-28T19:23:25.552Z,10.18
2022-12-28T19:25:52.039Z,10.15
2022-12-28T19:28:18.549Z,9.52
2022-12-28T19:30:45.434Z,10.55
2022-12-28T19:33:11.955Z,10.98
2022-12-28T19:35:38.364Z,10.10
2022-12-28T19:38:05.090Z,9.98
2022-12-28T19:40:31.640Z,9.05
2022-12-28T19:42:58.065Z,9.38
2022-12-28T19:45:24.711Z,9.82
2022-12-28T19:47:51.048Z,10.65
2022-12-28T19:50:17.484Z,9.85
2022-12-28T19:52:44.053Z,10.00
2022-12-28T19:55:10.475Z,10.05
2022-12-28T19:57:37.013Z,10.43
2022-12-28T20:00:04.219Z,10.13
2022-12-28T20:02:30.918Z,10.35
2022-12-28T20:04:57.412Z,10.68
2022-12-28T20:07:23.722Z,11.02
2022-12-28T20:09:50.624Z,10.15
2022-12-28T20:12:17.558Z,10.82
2022-12-28T20:14:44.005Z,9.90
2022-12-28T20:17:10.510Z,10.18
2022-12-28T20:19:36.953Z,10.68
2022-12-28T20:22:03.465Z,10.57
2022-12-28T20:24:29.862Z,11.15
2022-12-28T20:27:01.324Z,9.80
2022-12-28T20:29:28.332Z,10.73
2022-12-28T20:31:54.733Z,11.73
2022-12-28T20:34:21.233Z,12.10
2022-12-28T20:36:47.664Z,10.38
2022-12-28T20:39:14.080Z,9.93
2022-12-28T20:41:40.793Z,10.68
2022-12-28T20:44:16.605Z,9.68
2022-12-28T20:46:44.051Z,9.50
2022-12-28T20:49:11.253Z,9.93
2022-12-28T20:51:37.866Z,9.73
2022-12-28T20:54:04.728Z,9.95
2022-12-28T20:56:31.227Z,9.88
2022-12-28T20:58:58.473Z,9.73
2022-12-28T21:01:24.902Z,10.10
2022-12-28T21:03:51.671Z,9.93
2022-12-28T21:06:18.139Z,9.88
2022-12-28T21:08:44.531Z,10.40
2022-12-28T21:11:11.223Z,10.07
2022-12-28T21:13:43.776Z,8.32
2022-12-28T21:16:12.159Z,9.68
2022-12-28T21:18:38.820Z,9.27
2022-12-28T21:21:05.762Z,10.67
2022-12-28T21:23:32.860Z,10.32
2022-12-28T21:26:05.682Z,10.35
2022-12-28T21:28:33.236Z,10.97
2022-12-28T21:30:59.770Z,11.77
2022-12-28T21:33:27.146Z,11.23
2022-12-28T21:36:00.776Z,10.52
2022-12-28T21:38:28.251Z,10.93
2022-12-28T21:41:00.506Z,9.88
2022-12-28T21:43:27.683Z,10.30
2022-12-28T21:46:06.744Z,10.20
2022-12-28T21:48:35.423Z,9.50
2022-12-28T21:51:13.253Z,9.93
2022-12-28T21:53:39.870Z,10.00
2022-12-28T21:56:06.435Z,10.35
2022-12-28T21:58:32.755Z,11.10
2022-12-28T22:00:59.284Z,9.68
2022-12-28T22:03:26.057Z,10.48
2022-12-28T22:05:52.505Z,9.37
2022-12-28T22:08:19.020Z,9.80
2022-12-28T22:10:45.534Z,8.37
2022-12-28T22:13:11.857Z,8.67
2022-12-28T22:15:38.520Z,8.80
2022-12-28T22:18:07.379Z,9.00
2022-12-28T22:20:36.402Z,8.82
2022-12-28T22:23:04.107Z,8.83
2022-12-28T22:25:31.394Z,8.63
2022-12-28T22:27:58.242Z,8.05
2022-12-28T22:30:24.855Z,8.25
2022-12-28T22:32:51.481Z,8.40
2022-12-28T22:35:18.232Z,9.25
2022-12-28T22:37:44.693Z,9.00
2022-12-28T22:40:11.776Z,9.93
2022-12-28T22:42:42.601Z,9.05
2022-12-28T22:45:14.088Z,10.60
2022-12-28T22:47:40.941Z,9.63
2022-12-28T22:50:10.700Z,10.10
2022-12-28T22:52:37.284Z,10.70
2022-12-28T22:55:04.368Z,11.32
2022-12-28T22:57:31.072Z,12.38
2022-12-28T22:59:57.667Z,11.27
2022-12-28T23:02:24.470Z,12.07
2022-12-28T23:04:51.619Z,11.98
2022-12-28T23:07:18.477Z,12.43
2022-12-28T23:09:45.011Z,12.77
2022-12-28T23:12:11.350Z,12.65
2022-12-28T23:14:42.724Z,12.13
2022-12-28T23:17:12.456Z,10.80
2022-12-28T23:19:39.345Z,10.55
2022-12-28T23:22:07.079Z,10.38
2022-12-28T23:24:33.526Z,10.07
2022-12-28T23:27:00.220Z,10.60
2022-12-28T23:29:30.479Z,11.05
2022-12-28T23:31:57.581Z,10.60
2022-12-28T23:34:24.173Z,10.07
2022-12-28T23:36:50.779Z,11.93
2022-12-28T23:39:17.314Z,11.07
2022-12-28T23:41:44.006Z,12.53
2022-12-28T23:44:10.498Z,13.13
2022-12-28T23:46:36.993Z,13.68
2022-12-28T23:49:03.676Z,12.07
2022-12-28T23:51:30.181Z,11.45
2022-12-28T23:53:56.684Z,11.00
2022-12-28T23:56:23.018Z,12.88
2022-12-28T23:58:50.092Z,12.38
